Time;durP1;ratioP1;P1;durP2;ratioP2;P2;SDS_P1;SDS_P2;PMS_P1;PMS_P2;Temp;Humidity;BMP_temperature;BMP_pressure;BME280_temperature;BME280_humidity;BME280_pressure;Samples;Min_cycle;Max_cycle;Signal;HPM_P1;HPM_P2
2023/08/15 00:01:17;;;;;;;6.80;6.17;;;20.30;99.90;;;;;;5043503;28;20187;-53
2023/08/15 00:03:46;;;;;;;9.57;7.17;;;20.30;99.90;;;;;;5038629;28;20417;-53
2023/08/15 00:06:12;;;;;;;8.20;6.30;;;20.30;99.90;;;;;;5036646;28;20753;-53
2023/08/15 00:08:38;;;;;;;7.50;6.73;;;20.20;99.90;;;;;;5044587;28;21025;-54
2023/08/15 00:11:03;;;;;;;8.67;6.17;;;20.30;99.90;;;;;;5037369;28;20437;-53
2023/08/15 00:13:29;;;;;;;8.60;6.53;;;20.30;99.90;;;;;;5044840;28;20608;-53
2023/08/15 00:15:54;;;;;;;8.00;6.57;;;20.30;99.90;;;;;;5034007;28;20570;-53
2023/08/15 00:18:20;;;;;;;8.20;6.73;;;20.30;99.90;;;;;;5042367;28;20178;-53
2023/08/15 00:20:47;;;;;;;7.97;7.17;;;20.20;99.90;;;;;;5042307;28;20710;-52
2023/08/15 00:23:13;;;;;;;9.73;6.60;;;20.20;99.90;;;;;;5042411;28;20670;-53
2023/08/15 00:25:38;;;;;;;14.00;6.97;;;20.20;99.90;;;;;;5045210;28;20426;-52
2023/08/15 00:28:04;;;;;;;10.37;6.97;;;20.20;99.90;;;;;;5037729;28;20238;-53
2023/08/15 00:30:32;;;;;;;7.90;6.87;;;20.10;99.90;;;;;;5044231;28;20228;-53
2023/08/15 00:32:58;;;;;;;7.73;6.90;;;20.10;99.90;;;;;;5041839;28;20199;-54
2023/08/15 00:35:23;;;;;;;10.17;7.00;;;20.10;99.90;;;;;;5045201;28;20966;-54
2023/08/15 00:37:49;;;;;;;7.20;6.50;;;20.10;99.90;;;;;;5036457;28;20168;-54
2023/08/15 00:40:14;;;;;;;10.70;7.07;;;20.00;99.90;;;;;;5040130;28;20753;-53
2023/08/15 00:42:40;;;;;;;9.40;6.37;;;20.00;99.90;;;;;;5041830;28;20171;-54
2023/08/15 00:45:06;;;;;;;7.10;6.30;;;19.90;99.90;;;;;;5045182;28;20197;-53
2023/08/15 00:47:33;;;;;;;7.47;6.73;;;19.90;99.90;;;;;;5042083;28;20688;-53
2023/08/15 00:49:59;;;;;;;9.53;6.77;;;19.80;99.90;;;;;;5041647;28;20457;-53
2023/08/15 00:52:26;;;;;;;8.90;6.97;;;19.80;99.90;;;;;;5040586;28;20414;-52
2023/08/15 00:54:52;;;;;;;7.60;6.87;;;19.80;99.90;;;;;;5040240;28;20430;-53
2023/08/15 00:57:18;;;;;;;11.40;7.30;;;19.70;99.90;;;;;;5043881;28;20437;-52
2023/08/15 00:59:44;;;;;;;14.57;6.40;;;19.70;99.90;;;;;;5037183;28;20438;-53
2023/08/15 01:02:10;;;;;;;8.67;7.77;;;19.60;99.90;;;;;;5045610;28;20965;-53
2023/08/15 01:04:38;;;;;;;11.60;6.97;;;19.60;99.90;;;;;;5046473;28;20191;-54
2023/08/15 01:07:04;;;;;;;11.77;6.97;;;19.60;99.90;;;;;;5043872;28;20449;-53
2023/08/15 01:09:30;;;;;;;11.80;7.40;;;19.60;99.90;;;;;;5036554;28;20462;-53
2023/08/15 01:12:30;;;;;;;7.70;6.90;;;19.50;99.90;;;;;;5034746;28;20594;-53
2023/08/15 01:15:06;;;;;;;9.37;6.90;;;19.50;99.90;;;;;;5038736;28;20684;-53
2023/08/15 01:17:52;;;;;;;10.17;7.23;;;19.50;99.90;;;;;;5042072;28;20523;-50
2023/08/15 01:20:26;;;;;;;8.50;7.20;;;19.50;99.90;;;;;;5036900;28;20421;-53
2023/08/15 01:22:52;;;;;;;10.50;7.20;;;19.40;99.90;;;;;;5035548;28;20438;-53
2023/08/15 01:25:18;;;;;;;9.57;6.90;;;19.40;99.90;;;;;;5042423;28;20488;-52
2023/08/15 01:27:44;;;;;;;7.40;6.70;;;19.40;99.90;;;;;;5043294;28;20469;-55
2023/08/15 01:30:11;;;;;;;8.70;7.37;;;19.40;99.90;;;;;;5039724;28;20206;-53
2023/08/15 01:32:51;;;;;;;11.63;7.40;;;19.40;99.90;;;;;;5041438;28;20199;-54
2023/08/15 01:35:24;;;;;;;12.20;6.67;;;19.40;99.90;;;;;;5036074;28;20523;-52
2023/08/15 01:38:07;;;;;;;11.20;6.50;;;19.40;99.90;;;;;;5035646;28;20414;-54
2023/08/15 01:40:35;;;;;;;9.57;6.67;;;19.40;99.90;;;;;;5037928;28;20425;-54
2023/08/15 01:43:02;;;;;;;8.40;7.50;;;19.30;99.90;;;;;;5036684;28;20430;-52
2023/08/15 01:45:29;;;;;;;9.13;6.97;;;19.30;99.90;;;;;;5037523;28;20833;-53
2023/08/15 01:47:54;;;;;;;8.23;7.07;;;19.30;99.90;;;;;;5042507;28;20435;-52
2023/08/15 01:50:20;;;;;;;8.97;6.60;;;19.30;99.90;;;;;;5042710;28;20456;-53
2023/08/15 01:52:46;;;;;;;10.23;7.27;;;19.30;99.90;;;;;;5042101;28;20171;-51
2023/08/15 01:55:11;;;;;;;8.20;7.30;;;19.20;99.90;;;;;;5040954;28;20176;-53
2023/08/15 01:57:37;;;;;;;11.40;7.03;;;19.20;99.90;;;;;;5039356;28;20222;-52
2023/08/15 02:00:03;;;;;;;8.30;7.50;;;19.20;99.90;;;;;;5043257;28;20195;-53
2023/08/15 02:02:29;;;;;;;7.57;6.80;;;19.20;99.90;;;;;;5049067;28;20171;-56
2023/08/15 02:04:55;;;;;;;9.70;7.53;;;19.20;99.90;;;;;;5043682;28;20784;-53
2023/08/15 02:07:21;;;;;;;11.30;6.70;;;19.20;99.90;;;;;;5042372;28;20222;-55
2023/08/15 02:09:46;;;;;;;8.83;6.90;;;19.20;99.90;;;;;;5040456;28;20461;-51
2023/08/15 02:12:12;;;;;;;10.30;7.13;;;19.20;99.90;;;;;;5047374;28;20187;-55
2023/08/15 02:14:37;;;;;;;9.77;6.47;;;19.20;99.90;;;;;;5049736;28;20179;-53
2023/08/15 02:17:03;;;;;;;7.83;7.00;;;19.20;99.90;;;;;;5037630;28;20226;-53
2023/08/15 02:19:28;;;;;;;9.73;7.13;;;19.20;99.90;;;;;;5041245;28;20740;-53
2023/08/15 02:21:54;;;;;;;8.00;6.93;;;19.20;99.90;;;;;;5042127;28;20624;-53
2023/08/15 02:24:20;;;;;;;8.27;7.33;;;19.20;99.90;;;;;;5047064;28;20182;-55
2023/08/15 02:26:45;;;;;;;8.43;7.07;;;19.20;99.90;;;;;;5042632;28;20778;-54
2023/08/15 02:29:13;;;;;;;10.87;6.87;;;19.20;99.90;;;;;;5041650;28;20195;-53
2023/08/15 02:31:43;;;;;;;9.37;7.47;;;19.20;99.90;;;;;;5048099;28;20186;-53
2023/08/15 02:34:09;;;;;;;15.40;8.17;;;19.20;99.90;;;;;;5047614;28;21019;-53
2023/08/15 02:36:35;;;;;;;11.10;7.57;;;19.20;99.90;;;;;;5047187;28;20575;-54
2023/08/15 02:39:00;;;;;;;12.57;7.07;;;19.20;99.90;;;;;;5041024;28;20209;-54
2023/08/15 02:41:26;;;;;;;7.63;6.73;;;19.20;99.90;;;;;;5041191;28;20225;-54
2023/08/15 02:43:51;;;;;;;9.40;6.77;;;19.20;99.90;;;;;;5041123;28;20187;-52
2023/08/15 02:46:17;;;;;;;9.97;6.63;;;19.20;99.90;;;;;;5045402;28;20690;-52
2023/08/15 02:48:42;;;;;;;8.90;6.93;;;19.20;99.90;;;;;;5043464;28;20180;-53
2023/08/15 02:51:08;;;;;;;8.50;6.60;;;19.20;99.90;;;;;;5040150;28;20266;-54
2023/08/15 02:53:36;;;;;;;10.17;7.77;;;19.10;99.90;;;;;;5043046;28;20174;-53
2023/08/15 02:56:01;;;;;;;11.83;7.27;;;19.10;99.90;;;;;;5047099;28;20226;-50
2023/08/15 02:58:27;;;;;;;8.30;7.40;;;19.10;99.90;;;;;;5044320;28;20950;-52
2023/08/15 03:00:53;;;;;;;9.43;7.20;;;19.10;99.90;;;;;;5042147;28;20729;-53
2023/08/15 03:03:18;;;;;;;9.90;7.60;;;19.10;99.90;;;;;;5040201;28;20172;-53
2023/08/15 03:05:44;;;;;;;9.03;7.13;;;19.10;99.90;;;;;;5044663;28;20205;-53
2023/08/15 03:08:09;;;;;;;9.33;6.90;;;19.10;99.90;;;;;;5046377;28;20183;-53
2023/08/15 03:10:36;;;;;;;11.30;8.00;;;19.00;99.90;;;;;;5041949;28;20578;-53
2023/08/15 03:13:03;;;;;;;7.73;7.03;;;19.00;99.90;;;;;;5035469;28;20172;-52
2023/08/15 03:15:28;;;;;;;12.80;7.50;;;19.00;99.90;;;;;;5044347;28;20430;-53
2023/08/15 03:17:54;;;;;;;10.17;7.10;;;19.00;99.90;;;;;;5036924;28;20525;-53
2023/08/15 03:20:21;;;;;;;11.33;7.50;;;18.90;99.90;;;;;;5047664;28;20657;-54
2023/08/15 03:22:46;;;;;;;10.47;7.90;;;18.90;99.90;;;;;;5043594;28;20674;-53
2023/08/15 03:25:12;;;;;;;11.40;6.87;;;18.90;99.90;;;;;;5043520;28;20515;-55
2023/08/15 03:27:37;;;;;;;11.50;7.83;;;18.90;99.90;;;;;;5045848;28;20214;-53
2023/08/15 03:30:04;;;;;;;8.40;7.10;;;18.90;99.90;;;;;;5044574;28;20282;-53
2023/08/15 03:32:29;;;;;;;9.70;7.57;;;18.90;99.90;;;;;;5045736;28;20179;-54
2023/08/15 03:34:55;;;;;;;7.70;6.90;;;18.90;99.90;;;;;;5040994;28;20476;-54
2023/08/15 03:37:22;;;;;;;10.93;7.63;;;18.90;99.90;;;;;;5042894;28;20199;-53
2023/08/15 03:39:47;;;;;;;8.13;7.10;;;18.90;99.90;;;;;;5043803;28;20635;-55
2023/08/15 03:42:13;;;;;;;14.47;6.77;;;18.90;99.90;;;;;;5046712;28;20432;-53
2023/08/15 03:44:38;;;;;;;7.93;7.17;;;18.90;99.90;;;;;;5038644;28;20179;-54
2023/08/15 03:47:04;;;;;;;9.13;6.70;;;18.90;99.90;;;;;;5044188;28;20198;-53
2023/08/15 03:49:31;;;;;;;15.50;8.00;;;18.90;99.90;;;;;;5038895;28;20202;-54
2023/08/15 03:51:57;;;;;;;8.70;6.90;;;18.90;99.90;;;;;;5042561;28;20205;-54
2023/08/15 03:54:22;;;;;;;10.03;8.23;;;18.90;99.90;;;;;;5034737;28;20927;-52
2023/08/15 03:56:48;;;;;;;8.60;7.50;;;18.90;99.90;;;;;;5040629;28;20287;-53
2023/08/15 03:59:14;;;;;;;10.67;7.63;;;18.90;99.90;;;;;;5043347;28;20190;-54
2023/08/15 04:01:39;;;;;;;9.70;6.87;;;18.90;99.90;;;;;;5030087;28;20586;-55
2023/08/15 04:04:05;;;;;;;12.90;7.40;;;18.90;99.90;;;;;;5033462;28;20175;-54
2023/08/15 04:06:31;;;;;;;9.40;7.70;;;18.90;99.90;;;;;;5043153;28;20630;-52
2023/08/15 04:08:56;;;;;;;7.90;7.10;;;19.00;99.90;;;;;;5038952;28;20489;-59
2023/08/15 04:11:22;;;;;;;10.30;7.77;;;18.90;99.90;;;;;;5037387;28;20179;-60
2023/08/15 04:13:48;;;;;;;13.60;7.63;;;19.00;99.90;;;;;;5032490;28;20191;-60
2023/08/15 04:16:14;;;;;;;9.60;7.43;;;18.90;99.90;;;;;;5038388;28;20201;-60
2023/08/15 04:18:40;;;;;;;9.13;7.10;;;18.90;99.90;;;;;;5032389;28;20234;-59
2023/08/15 04:21:06;;;;;;;7.90;6.73;;;19.00;99.90;;;;;;5037718;28;20441;-60
2023/08/15 04:23:31;;;;;;;14.70;6.97;;;18.90;99.90;;;;;;5039903;28;20179;-60
2023/08/15 04:25:57;;;;;;;10.10;7.10;;;19.00;99.90;;;;;;5037015;28;20211;-61
2023/08/15 04:28:23;;;;;;;11.93;7.20;;;19.00;99.90;;;;;;5038565;28;20263;-60
2023/08/15 04:30:48;;;;;;;9.70;7.60;;;19.00;99.90;;;;;;5037656;28;20237;-61
2023/08/15 04:33:14;;;;;;;9.27;6.67;;;19.00;99.90;;;;;;5040791;28;20221;-61
2023/08/15 04:35:40;;;;;;;10.13;7.40;;;19.00;99.90;;;;;;5042375;28;20237;-59
2023/08/15 04:38:05;;;;;;;9.20;7.40;;;19.00;99.90;;;;;;5040145;28;20559;-59
2023/08/15 04:40:40;;;;;;;7.83;6.80;;;19.00;99.90;;;;;;5042533;28;20179;-59
2023/08/15 04:43:06;;;;;;;13.07;7.40;;;19.00;99.90;;;;;;5036899;28;20181;-60
2023/08/15 04:45:32;;;;;;;9.07;7.77;;;19.00;99.90;;;;;;5040196;28;20437;-61
2023/08/15 04:47:58;;;;;;;8.00;7.20;;;18.90;99.90;;;;;;5041036;28;20444;-59
2023/08/15 04:50:24;;;;;;;14.60;7.13;;;18.90;99.90;;;;;;5037133;28;20279;-59
2023/08/15 04:52:49;;;;;;;10.37;7.50;;;18.90;99.90;;;;;;5035303;28;20180;-60
2023/08/15 04:55:15;;;;;;;8.37;7.10;;;18.90;99.90;;;;;;5040702;28;20180;-59
2023/08/15 04:57:41;;;;;;;7.97;7.23;;;18.90;99.90;;;;;;5034523;28;20261;-60
2023/08/15 05:00:08;;;;;;;9.53;7.67;;;18.90;99.90;;;;;;5032311;28;20187;-60
2023/08/15 05:02:40;;;;;;;11.87;8.27;;;18.90;99.90;;;;;;5029450;28;20187;-61
2023/08/15 05:05:09;;;;;;;7.70;6.87;;;18.90;99.90;;;;;;5042815;28;20438;-59
2023/08/15 05:07:35;;;;;;;7.20;6.50;;;18.90;99.90;;;;;;5040562;28;21056;-61
2023/08/15 05:10:01;;;;;;;9.77;7.73;;;18.90;99.90;;;;;;5036978;28;20458;-60
2023/08/15 05:12:27;;;;;;;11.17;7.00;;;18.90;99.90;;;;;;5042779;28;20442;-61
2023/08/15 05:14:52;;;;;;;9.70;7.20;;;18.90;99.90;;;;;;5034105;28;20457;-60
2023/08/15 05:17:19;;;;;;;12.90;8.60;;;18.90;99.90;;;;;;5038983;28;20202;-59
2023/08/15 05:19:44;;;;;;;9.10;7.57;;;18.90;99.90;;;;;;5042857;28;20278;-59
2023/08/15 05:22:10;;;;;;;8.33;7.53;;;18.80;99.90;;;;;;5039197;28;20540;-60
2023/08/15 05:24:35;;;;;;;9.20;7.53;;;18.90;99.90;;;;;;5042032;28;20537;-61
2023/08/15 05:27:02;;;;;;;10.27;7.43;;;18.90;99.90;;;;;;5038209;28;20222;-58
2023/08/15 05:29:27;;;;;;;9.37;7.57;;;18.90;99.90;;;;;;5038625;28;20642;-60
2023/08/15 05:31:53;;;;;;;10.00;7.90;;;18.90;99.90;;;;;;5037122;28;20468;-58
2023/08/15 05:34:19;;;;;;;9.37;8.17;;;18.90;99.90;;;;;;5044146;28;20203;-61
2023/08/15 05:36:44;;;;;;;9.97;8.17;;;18.90;99.90;;;;;;5035471;28;20309;-59
2023/08/15 05:39:10;;;;;;;9.20;7.10;;;18.90;99.90;;;;;;5039126;28;20267;-58
2023/08/15 05:41:35;;;;;;;7.13;6.43;;;19.00;99.90;;;;;;5041903;28;20194;-59
2023/08/15 05:44:01;;;;;;;8.40;7.50;;;19.10;99.90;;;;;;5045372;28;20183;-59
2023/08/15 05:46:27;;;;;;;10.23;8.10;;;19.10;99.90;;;;;;5044978;28;20905;-59
2023/08/15 05:48:52;;;;;;;7.93;7.10;;;19.10;99.90;;;;;;5030831;28;20189;-60
2023/08/15 05:51:18;;;;;;;10.93;7.90;;;19.20;99.90;;;;;;5038596;28;20202;-59
2023/08/15 05:53:43;;;;;;;8.17;7.27;;;19.20;99.90;;;;;;5039101;28;20184;-59
2023/08/15 05:56:09;;;;;;;9.00;7.67;;;19.30;99.90;;;;;;5044819;28;20198;-59
2023/08/15 05:58:34;;;;;;;11.50;7.60;;;19.40;99.90;;;;;;5046192;28;20246;-59
2023/08/15 06:01:00;;;;;;;14.77;8.13;;;19.40;99.90;;;;;;5041450;28;20230;-59
2023/08/15 06:03:26;;;;;;;9.50;8.47;;;19.50;99.90;;;;;;5043679;28;20179;-59
2023/08/15 06:05:55;;;;;;;10.53;8.23;;;19.60;99.90;;;;;;5046916;28;20207;-58
2023/08/15 06:08:21;;;;;;;12.03;7.73;;;19.60;99.90;;;;;;5047472;28;20429;-59
2023/08/15 06:10:47;;;;;;;11.63;8.87;;;19.60;99.90;;;;;;5044948;28;20473;-59
2023/08/15 06:13:12;;;;;;;11.67;7.93;;;19.70;99.90;;;;;;5043844;28;20640;-61
2023/08/15 06:15:38;;;;;;;15.87;7.87;;;19.70;99.90;;;;;;5045532;28;20179;-61
2023/08/15 06:18:04;;;;;;;9.00;7.40;;;19.80;99.90;;;;;;5046697;28;20211;-59
2023/08/15 06:20:29;;;;;;;10.60;7.40;;;19.80;99.90;;;;;;5046119;28;20188;-59
2023/08/15 06:22:55;;;;;;;10.93;7.40;;;19.90;99.90;;;;;;5042361;28;20996;-60
2023/08/15 06:25:20;;;;;;;8.77;7.83;;;19.90;99.90;;;;;;5048864;28;20186;-60
2023/08/15 06:27:46;;;;;;;9.20;8.00;;;19.90;99.90;;;;;;5046216;28;20883;-59
2023/08/15 06:30:12;;;;;;;12.17;8.43;;;20.00;99.90;;;;;;5046465;28;20552;-59
2023/08/15 06:32:38;;;;;;;11.13;8.20;;;20.00;99.90;;;;;;5041409;28;20296;-60
2023/08/15 06:35:05;;;;;;;18.20;9.10;;;20.00;99.90;;;;;;5042358;28;20434;-60
2023/08/15 06:37:31;;;;;;;18.93;8.43;;;20.00;99.90;;;;;;5039500;28;20195;-60
2023/08/15 06:39:56;;;;;;;21.73;9.03;;;20.10;99.90;;;;;;5044924;28;20435;-60
2023/08/15 06:42:22;;;;;;;19.93;9.23;;;20.10;99.90;;;;;;5047884;28;20258;-60
2023/08/15 06:44:47;;;;;;;11.63;7.43;;;20.10;99.90;;;;;;5043230;28;20192;-61
2023/08/15 06:47:13;;;;;;;14.33;8.40;;;20.20;99.90;;;;;;5039649;28;20200;-60
2023/08/15 06:49:39;;;;;;;21.80;8.90;;;20.20;99.90;;;;;;5045210;28;20564;-59
2023/08/15 06:52:07;;;;;;;18.10;9.20;;;20.30;99.90;;;;;;5046678;28;20460;-59
2023/08/15 06:54:32;;;;;;;19.67;8.90;;;20.40;99.90;;;;;;5047181;28;20188;-60
2023/08/15 06:56:58;;;;;;;21.23;8.93;;;20.40;99.90;;;;;;5040504;28;20450;-59
2023/08/15 06:59:24;;;;;;;33.63;9.40;;;20.40;99.90;;;;;;5045370;28;20195;-60
2023/08/15 07:01:53;;;;;;;20.70;8.70;;;20.30;99.90;;;;;;5047686;28;20263;-58
2023/08/15 07:04:19;;;;;;;11.80;8.00;;;20.30;99.90;;;;;;5051422;28;20255;-60
2023/08/15 07:06:44;;;;;;;22.13;8.77;;;20.40;99.90;;;;;;5042097;28;21128;-59
2023/08/15 07:09:14;;;;;;;13.40;8.10;;;20.40;99.90;;;;;;5036509;28;20199;-59
2023/08/15 07:11:40;;;;;;;19.03;8.87;;;20.40;99.90;;;;;;5040486;28;20187;-60
2023/08/15 07:14:05;;;;;;;10.67;8.40;;;20.40;99.90;;;;;;5048401;28;20483;-59
2023/08/15 07:16:31;;;;;;;9.60;8.60;;;20.50;99.90;;;;;;5038099;28;20462;-60
2023/08/15 07:18:57;;;;;;;16.40;8.43;;;20.50;99.90;;;;;;5037720;28;20550;-60
2023/08/15 07:21:23;;;;;;;13.47;8.60;;;20.60;99.90;;;;;;5043764;28;20853;-61
2023/08/15 07:23:48;;;;;;;17.57;9.13;;;20.60;99.90;;;;;;5046843;28;20210;-60
2023/08/15 07:26:14;;;;;;;12.80;7.97;;;20.60;99.90;;;;;;5043484;28;20230;-60
2023/08/15 07:28:39;;;;;;;16.10;8.10;;;20.60;99.90;;;;;;5032330;28;20641;-59
2023/08/15 07:31:05;;;;;;;14.83;8.57;;;20.60;99.90;;;;;;5042806;28;20205;-59
2023/08/15 07:33:31;;;;;;;8.27;7.40;;;20.60;99.90;;;;;;5046174;28;20194;-61
2023/08/15 07:35:57;;;;;;;14.80;7.33;;;20.70;99.90;;;;;;5047815;28;20199;-59
2023/08/15 07:38:22;;;;;;;10.60;8.07;;;20.70;99.90;;;;;;5036810;28;20175;-59
2023/08/15 07:40:48;;;;;;;14.97;8.40;;;20.70;99.90;;;;;;5039559;28;20179;-61
2023/08/15 07:43:14;;;;;;;8.30;7.40;;;20.70;99.90;;;;;;5040861;28;20171;-60
2023/08/15 07:45:39;;;;;;;14.13;8.20;;;20.80;99.90;;;;;;5045907;28;20797;-58
2023/08/15 07:48:05;;;;;;;9.97;8.30;;;20.80;99.90;;;;;;5046329;28;20260;-60
2023/08/15 07:50:31;;;;;;;14.70;9.30;;;20.80;99.90;;;;;;5042774;28;20206;-60
2023/08/15 07:53:00;;;;;;;13.33;9.50;;;20.80;99.90;;;;;;5043396;28;20710;-58
2023/08/15 07:55:27;;;;;;;11.83;8.30;;;20.80;99.90;;;;;;5045430;28;20719;-60
2023/08/15 07:57:53;;;;;;;13.50;8.20;;;20.90;99.90;;;;;;5046499;28;20458;-59
2023/08/15 08:00:18;;;;;;;10.07;8.47;;;21.00;99.90;;;;;;5034095;28;20517;-59
2023/08/15 08:02:45;;;;;;;10.27;8.07;;;21.10;99.90;;;;;;5034545;28;20214;-59
2023/08/15 08:05:14;;;;;;;15.37;8.73;;;21.20;99.90;;;;;;5042187;28;20179;-59
2023/08/15 08:07:42;;;;;;;14.07;8.33;;;21.30;99.90;;;;;;5045051;28;20532;-60
2023/08/15 08:10:07;;;;;;;16.47;8.73;;;21.40;99.90;;;;;;5046269;28;20802;-58
2023/08/15 08:12:33;;;;;;;18.70;9.10;;;21.50;99.90;;;;;;5034109;28;20480;-58
2023/08/15 08:14:59;;;;;;;13.87;8.90;;;21.60;99.90;;;;;;5030638;28;20183;-60
2023/08/15 08:17:25;;;;;;;21.30;9.03;;;21.90;99.90;;;;;;5027565;28;20469;-60
2023/08/15 08:19:51;;;;;;;15.20;9.10;;;22.10;99.90;;;;;;5039230;28;20179;-59
2023/08/15 08:22:16;;;;;;;15.73;10.00;;;22.30;99.90;;;;;;5046628;28;20634;-60
2023/08/15 08:24:42;;;;;;;19.03;9.13;;;22.50;99.90;;;;;;5037363;28;20201;-59
2023/08/15 08:27:08;;;;;;;17.50;9.90;;;22.70;99.90;;;;;;5041164;28;20298;-60
2023/08/15 08:29:34;;;;;;;17.63;8.77;;;22.80;99.90;;;;;;5042832;28;20206;-60
2023/08/15 08:31:59;;;;;;;13.03;9.40;;;22.80;99.90;;;;;;5044816;28;20183;-59
2023/08/15 08:34:25;;;;;;;18.23;9.83;;;22.90;99.90;;;;;;5039720;28;20437;-59
2023/08/15 08:36:51;;;;;;;11.87;8.13;;;22.90;99.90;;;;;;5036713;28;20723;-60
2023/08/15 08:39:16;;;;;;;13.63;8.80;;;23.10;99.90;;;;;;5042110;28;20272;-59
2023/08/15 08:41:42;;;;;;;22.80;10.30;;;23.20;99.90;;;;;;5044970;28;20186;-60
2023/08/15 08:44:10;;;;;;;17.37;8.77;;;23.30;99.90;;;;;;5042560;28;20591;-60
2023/08/15 08:46:36;;;;;;;12.50;8.33;;;23.40;99.90;;;;;;5036521;28;20698;-59
2023/08/15 08:49:03;;;;;;;25.30;8.00;;;23.30;99.90;;;;;;5040844;28;20414;-59
2023/08/15 08:51:32;;;;;;;15.03;8.83;;;23.30;99.90;;;;;;5043236;28;20444;-59
2023/08/15 08:53:58;;;;;;;12.93;7.47;;;23.40;99.90;;;;;;5036397;28;21072;-59
2023/08/15 08:56:26;;;;;;;21.50;8.60;;;23.60;99.90;;;;;;5032167;28;21009;-60
2023/08/15 08:59:00;;;;;;;23.03;8.20;;;23.80;99.90;;;;;;5040602;28;20430;-60
2023/08/15 09:01:29;;;;;;;14.67;7.03;;;24.00;99.90;;;;;;5044420;28;20950;-60
2023/08/15 09:03:56;;;;;;;11.13;7.43;;;24.10;99.90;;;;;;5046341;28;20444;-60
2023/08/15 09:06:22;;;;;;;25.27;7.90;;;24.30;99.90;;;;;;5031675;28;20468;-60
2023/08/15 09:08:48;;;;;;;15.93;7.90;;;24.50;99.90;;;;;;5040468;28;20433;-59
2023/08/15 09:11:13;;;;;;;19.97;7.80;;;24.60;99.60;;;;;;5042578;28;20430;-59
2023/08/15 09:13:49;;;;;;;20.40;6.87;;;24.80;99.20;;;;;;5045678;28;20691;-59
2023/08/15 09:16:15;;;;;;;14.57;6.73;;;24.90;97.20;;;;;;5044949;28;20201;-59
2023/08/15 09:18:42;;;;;;;18.30;7.20;;;25.10;92.80;;;;;;5044549;28;20496;-59
2023/08/15 09:21:08;;;;;;;14.30;7.23;;;25.20;90.70;;;;;;5035809;28;20826;-60
2023/08/15 09:23:33;;;;;;;6.47;3.40;;;25.30;85.00;;;;;;5036076;28;20437;-60
2023/08/15 09:26:12;;;;;;;8.20;4.20;;;25.20;61.00;;;;;;5043366;28;20299;-61
2023/08/15 09:28:42;;;;;;;10.43;4.33;;;25.10;60.70;;;;;;5044510;28;20198;-61
2023/08/15 09:31:10;;;;;;;7.80;4.80;;;25.00;62.60;;;;;;5049393;28;20992;-60
2023/08/15 09:33:37;;;;;;;8.27;4.00;;;24.90;63.10;;;;;;5050623;28;20436;-60
2023/08/15 09:36:05;;;;;;;7.10;4.60;;;24.80;62.10;;;;;;5045110;28;20448;-60
2023/08/15 09:38:30;;;;;;;5.93;3.73;;;24.80;61.40;;;;;;5043525;28;20558;-61
2023/08/15 09:40:57;;;;;;;10.30;4.10;;;24.80;61.40;;;;;;5049152;28;20976;-60
2023/08/15 09:43:23;;;;;;;14.07;3.30;;;24.80;59.10;;;;;;5042679;28;20175;-60
2023/08/15 09:45:52;;;;;;;6.60;3.70;;;24.90;58.70;;;;;;5046829;28;20540;-60
2023/08/15 09:48:19;;;;;;;4.57;3.20;;;24.90;57.20;;;;;;5048167;28;20181;-61
2023/08/15 09:50:47;;;;;;;6.43;3.40;;;25.20;57.70;;;;;;5046815;28;20452;-60
2023/08/15 09:53:13;;;;;;;7.50;3.63;;;25.40;57.50;;;;;;5039036;28;20882;-61
2023/08/15 09:55:39;;;;;;;3.53;3.17;;;25.70;56.50;;;;;;5043291;28;20440;-60
2023/08/15 09:58:05;;;;;;;3.77;2.70;;;25.80;54.40;;;;;;5041564;28;20433;-61
2023/08/15 10:00:31;;;;;;;4.70;3.10;;;25.90;53.80;;;;;;5041964;28;20440;-60
2023/08/15 10:03:06;;;;;;;8.17;3.40;;;25.90;53.80;;;;;;5045306;28;20175;-60
2023/08/15 10:05:33;;;;;;;12.57;4.97;;;26.00;54.00;;;;;;5045554;28;20456;-62
2023/08/15 10:07:59;;;;;;;8.03;4.23;;;26.00;54.10;;;;;;5043476;28;20458;-60
2023/08/15 10:10:27;;;;;;;8.67;4.13;;;26.10;54.30;;;;;;5047596;28;20202;-60
2023/08/15 10:12:54;;;;;;;11.43;4.37;;;26.20;54.70;;;;;;5049444;28;20508;-60
2023/08/15 10:15:22;;;;;;;9.67;3.90;;;26.30;54.70;;;;;;5043982;28;20430;-59
2023/08/15 10:17:49;;;;;;;8.40;3.80;;;26.50;54.70;;;;;;5037788;28;20195;-60
2023/08/15 10:20:19;;;;;;;8.07;4.00;;;26.80;54.70;;;;;;5042615;28;20198;-60
2023/08/15 10:22:48;;;;;;;3.57;3.27;;;27.20;53.90;;;;;;5048040;28;20183;-60
2023/08/15 10:25:32;;;;;;;11.20;3.67;;;27.50;53.40;;;;;;5044031;28;20722;-60
2023/08/15 10:27:58;;;;;;;10.40;3.90;;;27.60;52.60;;;;;;5035865;28;20182;-61
2023/08/15 10:30:33;;;;;;;5.07;2.90;;;27.70;51.70;;;;;;5044381;28;20301;-60
2023/08/15 10:33:12;;;;;;;5.43;3.27;;;27.80;50.10;;;;;;5044301;28;20202;-61
2023/08/15 10:36:10;;;;;;;4.77;3.20;;;27.80;50.40;;;;;;5043288;28;20262;-59
2023/08/15 10:38:41;;;;;;;9.80;3.40;;;27.80;49.70;;;;;;5026530;28;20192;-59
2023/08/15 10:41:15;;;;;;;4.53;2.80;;;27.70;48.60;;;;;;5039318;28;20176;-59
2023/08/15 10:43:47;;;;;;;8.67;4.50;;;27.60;48.50;;;;;;5039878;28;20182;-59
2023/08/15 10:46:12;;;;;;;5.90;2.83;;;27.60;47.80;;;;;;5048302;28;20260;-59
2023/08/15 10:48:51;;;;;;;7.40;3.20;;;27.70;47.70;;;;;;5044973;28;20191;-59
2023/08/15 10:51:20;;;;;;;6.10;3.00;;;27.80;48.20;;;;;;5040081;28;20297;-59
2023/08/15 10:53:48;;;;;;;3.63;2.90;;;27.90;48.30;;;;;;5043758;28;20189;-58
2023/08/15 10:56:25;;;;;;;4.70;2.83;;;27.90;47.20;;;;;;5046776;28;20196;-59
2023/08/15 10:58:51;;;;;;;5.07;3.13;;;27.90;47.90;;;;;;5046938;28;20178;-59
2023/08/15 11:01:21;;;;;;;5.72;3.25;;;28.00;49.30;;;;;;5038911;28;20178;-59
2023/08/15 11:03:48;;;;;;;3.58;2.47;;;28.00;47.10;;;;;;5041392;28;20190;-60
2023/08/15 11:06:15;;;;;;;4.68;2.60;;;27.90;46.60;;;;;;5045139;28;20203;-59
2023/08/15 11:08:45;;;;;;;3.50;2.70;;;27.90;46.70;;;;;;5046727;28;20185;-60
2023/08/15 11:11:11;;;;;;;5.03;3.70;;;27.90;47.60;;;;;;5042002;28;20202;-60
2023/08/15 11:13:41;;;;;;;9.90;3.80;;;28.20;49.00;;;;;;5045366;28;20232;-59
2023/08/15 11:16:08;;;;;;;8.00;4.13;;;28.50;50.60;;;;;;5050498;28;20294;-59
2023/08/15 11:18:37;;;;;;;7.03;3.28;;;28.60;49.60;;;;;;5051816;28;20167;-61
2023/08/15 11:21:07;;;;;;;5.00;3.42;;;28.70;48.90;;;;;;5043902;28;20194;-59
2023/08/15 11:23:33;;;;;;;4.75;3.47;;;28.70;48.70;;;;;;5035585;28;20882;-59
2023/08/15 11:26:07;;;;;;;6.03;3.60;;;28.60;48.70;;;;;;5038108;28;20203;-59
2023/08/15 11:28:34;;;;;;;6.38;3.33;;;28.60;49.60;;;;;;5041611;28;20178;-60
2023/08/15 11:31:04;;;;;;;5.72;3.40;;;28.60;50.00;;;;;;5048613;28;20614;-60
2023/08/15 11:33:30;;;;;;;5.20;3.25;;;28.80;49.40;;;;;;5043572;28;20175;-60
2023/08/15 11:36:05;;;;;;;11.23;4.05;;;29.10;48.80;;;;;;5037634;28;20228;-60
2023/08/15 11:38:31;;;;;;;5.72;3.38;;;29.40;49.60;;;;;;5038421;28;20178;-59
2023/08/15 11:40:58;;;;;;;7.30;3.38;;;29.70;48.40;;;;;;5041616;28;20731;-60
2023/08/15 11:43:25;;;;;;;7.72;4.03;;;29.90;47.90;;;;;;5044493;28;20193;-59
2023/08/15 11:45:51;;;;;;;4.15;3.30;;;30.10;47.40;;;;;;5043487;28;20864;-59
2023/08/15 11:48:17;;;;;;;3.72;3.30;;;30.00;46.50;;;;;;5041061;28;20201;-60
2023/08/15 11:50:43;;;;;;;7.00;4.13;;;29.90;46.90;;;;;;5044609;28;20237;-60
2023/08/15 11:53:11;;;;;;;10.55;4.53;;;29.80;47.10;;;;;;5044488;28;20229;-60
2023/08/15 11:55:38;;;;;;;8.93;3.70;;;29.70;47.30;;;;;;5042828;28;20322;-59
2023/08/15 11:58:29;;;;;;;7.75;4.18;;;29.70;47.40;;;;;;5037254;28;20239;-61
2023/08/15 12:00:59;;;;;;;8.57;3.90;;;29.80;48.40;;;;;;5036555;28;20684;-64
2023/08/15 12:03:26;;;;;;;9.00;3.83;;;30.00;47.70;;;;;;5045581;28;20201;-58
2023/08/15 12:05:56;;;;;;;9.38;4.28;;;30.10;47.90;;;;;;5048752;28;20195;-60
2023/08/15 12:08:26;;;;;;;10.52;3.90;;;30.30;46.90;;;;;;5040612;28;20189;-60
2023/08/15 12:11:06;;;;;;;7.80;4.30;;;30.40;48.30;;;;;;5041343;28;20207;-58
2023/08/15 12:13:40;;;;;;;7.28;4.28;;;30.70;48.40;;;;;;5044052;28;20175;-60
2023/08/15 12:16:07;;;;;;;6.10;3.85;;;30.90;47.50;;;;;;5036705;28;20219;-60
2023/08/15 12:18:34;;;;;;;8.18;3.30;;;31.10;47.60;;;;;;5046838;28;20182;-60
2023/08/15 12:21:00;;;;;;;5.13;3.80;;;31.30;47.90;;;;;;5038524;28;20207;-60
2023/08/15 12:23:26;;;;;;;8.05;4.03;;;31.50;46.40;;;;;;5041974;28;20183;-60
2023/08/15 12:25:52;;;;;;;6.85;4.70;;;31.60;46.10;;;;;;5045710;28;20210;-60
2023/08/15 12:28:18;;;;;;;12.05;4.47;;;31.70;46.00;;;;;;5045586;28;20185;-60
2023/08/15 12:30:45;;;;;;;6.43;4.18;;;31.70;45.70;;;;;;5041094;28;20209;-60
2023/08/15 12:33:11;;;;;;;12.95;4.50;;;31.80;45.70;;;;;;5041427;28;20237;-60
2023/08/15 12:35:37;;;;;;;10.18;4.63;;;31.80;45.90;;;;;;5042582;28;20180;-60
2023/08/15 12:38:03;;;;;;;4.90;4.38;;;31.90;46.50;;;;;;5039804;28;20171;-61
2023/08/15 12:40:29;;;;;;;7.65;6.05;;;32.10;46.70;;;;;;5041782;28;20299;-61
2023/08/15 12:42:54;;;;;;;5.60;4.10;;;32.30;46.20;;;;;;5041488;28;20188;-60